Terminal Aerodrome Forecast
Issued by NWS Grand Rapids, MI

Home | Current Version | Previous Version | Text Only | Print | Product List | Glossary On
Versions: 1 2 3 4 5 6 7 8 9 10 11 12 13 14 15 16 17 18
000
FTUS43 KGRR 162300
TAFGRR
TAF
KGRR 162340Z 1700/1724 13012G20KT P6SM BKN200
     FM170100 12011KT P6SM BKN090
     FM171800 18014G22KT P6SM BKN090=

USA.gov is the U.S. government's official web portal to all federal, state and local government web resources and services.